ENT56LK EDDN-LIPQ
Flight info
| Callsign | ENT56LK |
|---|---|
| Flight time | 0h 48m |
| Altitude | 33000 |
| Route | BOLSI1G/28 BOLSI DCT OTT DCT NANIT DCT TIBRO |
| Aircraft | B738/M-SDE2E3FGHIRWXY/LB1 |
Departure
| Time | 2026-04-27 16:52 |
|---|---|
| Airport | Nuremberg Airport (EDDN) |
Arrival
| Time | 2026-04-27 17:41 |
|---|---|
| Airport | Trieste Airport (LIPQ) |
| Time | Latitude | Longitude | Altitude | Speed | Heading |
|---|---|---|---|---|---|
| 2026-04-27 16:29 | 49.49528 | 11.07725 | 1021 ft | 0 kts | 188° |
| 2026-04-27 16:30 | 49.49514 | 11.07852 | 1021 ft | 0 kts | 188° |
| 2026-04-27 16:43 | 49.49515 | 11.07852 | 1025 ft | 1 kts | 188° |
| 2026-04-27 16:43 | 49.49538 | 11.07856 | 1025 ft | 4 kts | 176° |
| 2026-04-27 16:43 | 49.49564 | 11.07848 | 1026 ft | 4 kts | 150° |
| 2026-04-27 16:44 | 49.49577 | 11.07833 | 1025 ft | 4 kts | 118° |
| 2026-04-27 16:44 | 49.49581 | 11.07815 | 1026 ft | 1 kts | 98° |
| 2026-04-27 16:44 | 49.49582 | 11.07813 | 1026 ft | 0 kts | 98° |
| 2026-04-27 16:45 | 49.49581 | 11.07813 | 1026 ft | 0 kts | 98° |
| 2026-04-27 16:47 | 49.49581 | 11.07821 | 1026 ft | 3 kts | 98° |
| 2026-04-27 16:48 | 49.49573 | 11.07900 | 1026 ft | 12 kts | 98° |
| 2026-04-27 16:48 | 49.49559 | 11.08041 | 1026 ft | 14 kts | 98° |
| 2026-04-27 16:48 | 49.49545 | 11.08181 | 1023 ft | 13 kts | 98° |
| 2026-04-27 16:49 | 49.49599 | 11.08366 | 1032 ft | 11 kts | 36° |
| 2026-04-27 16:49 | 49.49611 | 11.08480 | 1034 ft | 12 kts | 97° |
| 2026-04-27 16:49 | 49.49596 | 11.08628 | 1035 ft | 16 kts | 98° |
| 2026-04-27 16:49 | 49.49577 | 11.08826 | 1037 ft | 21 kts | 98° |
| 2026-04-27 16:50 | 49.49553 | 11.09061 | 1039 ft | 23 kts | 98° |
| 2026-04-27 16:50 | 49.49532 | 11.09282 | 1043 ft | 18 kts | 98° |
| 2026-04-27 16:50 | 49.49560 | 11.09422 | 1046 ft | 11 kts | 54° |
| 2026-04-27 16:50 | 49.49596 | 11.09497 | 1049 ft | 7 kts | 53° |
| 2026-04-27 16:51 | 49.49626 | 11.09552 | 1050 ft | 7 kts | 42° |
| 2026-04-27 16:51 | 49.49679 | 11.09572 | 1053 ft | 10 kts | 340° |
| 2026-04-27 16:51 | 49.49706 | 11.09460 | 1050 ft | 20 kts | 278° |
| 2026-04-27 16:51 | 49.49764 | 11.08873 | 1040 ft | 91 kts | 278° |
| 2026-04-27 16:52 | 49.49891 | 11.07593 | 1025 ft | 148 kts | 278° |
| 2026-04-27 16:52 | 49.50051 | 11.05948 | 1521 ft | 155 kts | 282° |
| 2026-04-27 16:52 | 49.50222 | 11.04290 | 2156 ft | 162 kts | 281° |
| 2026-04-27 16:52 | 49.50403 | 11.02459 | 2490 ft | 187 kts | 281° |
| 2026-04-27 16:53 | 49.50607 | 11.00367 | 2757 ft | 213 kts | 279° |
| 2026-04-27 16:53 | 49.50833 | 10.97988 | 2963 ft | 235 kts | 279° |
| 2026-04-27 16:53 | 49.51076 | 10.95405 | 3229 ft | 256 kts | 279° |
| 2026-04-27 16:53 | 49.51193 | 10.92593 | 3768 ft | 269 kts | 261° |
| 2026-04-27 16:54 | 49.50518 | 10.89911 | 4635 ft | 270 kts | 244° |
| 2026-04-27 16:54 | 49.49677 | 10.87313 | 5416 ft | 273 kts | 244° |
| 2026-04-27 16:54 | 49.48842 | 10.84674 | 6224 ft | 274 kts | 244° |
| 2026-04-27 16:54 | 49.48020 | 10.82038 | 7098 ft | 274 kts | 244° |
| 2026-04-27 16:55 | 49.47189 | 10.79394 | 7896 ft | 276 kts | 241° |
| 2026-04-27 16:55 | 49.45906 | 10.77196 | 8691 ft | 282 kts | 213° |
| 2026-04-27 16:55 | 49.44086 | 10.76191 | 9564 ft | 286 kts | 188° |
| 2026-04-27 16:55 | 49.42079 | 10.76041 | 10377 ft | 291 kts | 182° |
| 2026-04-27 16:56 | 49.39987 | 10.76035 | 10713 ft | 314 kts | 181° |
| 2026-04-27 16:56 | 49.37729 | 10.76049 | 11041 ft | 333 kts | 181° |
| 2026-04-27 16:56 | 49.35385 | 10.76053 | 11709 ft | 340 kts | 181° |
| 2026-04-27 16:56 | 49.33007 | 10.76041 | 12528 ft | 343 kts | 182° |
| 2026-04-27 16:57 | 49.30612 | 10.76014 | 13368 ft | 346 kts | 182° |
| 2026-04-27 16:57 | 49.28182 | 10.75978 | 14151 ft | 351 kts | 183° |
| 2026-04-27 16:57 | 49.25724 | 10.75939 | 14904 ft | 356 kts | 183° |
| 2026-04-27 16:57 | 49.23237 | 10.76312 | 15628 ft | 365 kts | 165° |
| 2026-04-27 16:58 | 49.20938 | 10.78030 | 16439 ft | 373 kts | 149° |
| 2026-04-27 16:58 | 49.18760 | 10.80230 | 17202 ft | 378 kts | 148° |
| 2026-04-27 16:58 | 49.16569 | 10.82523 | 17902 ft | 385 kts | 147° |
| 2026-04-27 16:58 | 49.14351 | 10.84862 | 18574 ft | 390 kts | 148° |
| 2026-04-27 16:59 | 49.12136 | 10.87187 | 19208 ft | 394 kts | 148° |
| 2026-04-27 16:59 | 49.09858 | 10.89561 | 19866 ft | 398 kts | 148° |
| 2026-04-27 16:59 | 49.07554 | 10.91945 | 20508 ft | 402 kts | 148° |
| 2026-04-27 16:59 | 49.05225 | 10.94340 | 21136 ft | 406 kts | 148° |
| 2026-04-27 17:00 | 49.01258 | 10.98401 | 22124 ft | 414 kts | 149° |
| 2026-04-27 17:00 | 48.98065 | 11.01657 | 22907 ft | 419 kts | 149° |
| 2026-04-27 17:00 | 48.95628 | 11.04139 | 23499 ft | 423 kts | 149° |
| 2026-04-27 17:01 | 48.93161 | 11.06648 | 23991 ft | 429 kts | 149° |
| 2026-04-27 17:01 | 48.90667 | 11.09182 | 24465 ft | 433 kts | 149° |
| 2026-04-27 17:01 | 48.88154 | 11.11732 | 24962 ft | 435 kts | 149° |
| 2026-04-27 17:01 | 48.85627 | 11.14294 | 25460 ft | 438 kts | 149° |
| 2026-04-27 17:02 | 48.83078 | 11.16874 | 25929 ft | 441 kts | 149° |
| 2026-04-27 17:02 | 48.80545 | 11.19435 | 26386 ft | 445 kts | 149° |
| 2026-04-27 17:02 | 48.77960 | 11.22045 | 26844 ft | 448 kts | 149° |
| 2026-04-27 17:02 | 48.75355 | 11.24673 | 27273 ft | 451 kts | 149° |
| 2026-04-27 17:03 | 48.72733 | 11.27314 | 27739 ft | 454 kts | 149° |
| 2026-04-27 17:03 | 48.70091 | 11.29972 | 28191 ft | 457 kts | 149° |
| 2026-04-27 17:03 | 48.67433 | 11.32642 | 28607 ft | 460 kts | 149° |
| 2026-04-27 17:03 | 48.64751 | 11.35334 | 29010 ft | 463 kts | 149° |
| 2026-04-27 17:04 | 48.62060 | 11.38030 | 29421 ft | 466 kts | 149° |
| 2026-04-27 17:04 | 48.59341 | 11.40751 | 29838 ft | 469 kts | 149° |
| 2026-04-27 17:04 | 48.56619 | 11.43472 | 30345 ft | 468 kts | 149° |
| 2026-04-27 17:04 | 48.53941 | 11.46147 | 30870 ft | 466 kts | 149° |
| 2026-04-27 17:05 | 48.51245 | 11.48837 | 31382 ft | 464 kts | 149° |
| 2026-04-27 17:05 | 48.48546 | 11.51524 | 31789 ft | 464 kts | 149° |
| 2026-04-27 17:05 | 48.45847 | 11.54207 | 32214 ft | 464 kts | 149° |
| 2026-04-27 17:05 | 48.43155 | 11.56880 | 32658 ft | 463 kts | 149° |
| 2026-04-27 17:06 | 48.40461 | 11.59552 | 33094 ft | 463 kts | 149° |
| 2026-04-27 17:06 | 48.35012 | 11.64943 | 33150 ft | 469 kts | 149° |
| 2026-04-27 17:07 | 48.29640 | 11.70250 | 33152 ft | 461 kts | 149° |
| 2026-04-27 17:07 | 48.24265 | 11.75545 | 33173 ft | 462 kts | 149° |
| 2026-04-27 17:08 | 48.18872 | 11.80838 | 33165 ft | 464 kts | 150° |
| 2026-04-27 17:08 | 48.13171 | 11.85261 | 33146 ft | 461 kts | 159° |
| 2026-04-27 17:09 | 48.07297 | 11.89122 | 33137 ft | 461 kts | 160° |
| 2026-04-27 17:09 | 48.01414 | 11.93008 | 33120 ft | 462 kts | 159° |
| 2026-04-27 17:10 | 47.95591 | 11.96925 | 33123 ft | 462 kts | 159° |
| 2026-04-27 17:10 | 47.89743 | 12.00883 | 33125 ft | 461 kts | 159° |
| 2026-04-27 17:11 | 47.83905 | 12.04826 | 33118 ft | 460 kts | 159° |
| 2026-04-27 17:11 | 47.75184 | 12.10692 | 33114 ft | 458 kts | 159° |
| 2026-04-27 17:12 | 47.66489 | 12.16517 | 33095 ft | 455 kts | 159° |
| 2026-04-27 17:13 | 47.60717 | 12.20372 | 33117 ft | 456 kts | 159° |
| 2026-04-27 17:13 | 47.54922 | 12.24233 | 33109 ft | 458 kts | 158° |
| 2026-04-27 17:14 | 47.49102 | 12.28102 | 33117 ft | 459 kts | 158° |
| 2026-04-27 17:14 | 47.43309 | 12.31945 | 33115 ft | 459 kts | 158° |
| 2026-04-27 17:15 | 47.37551 | 12.36080 | 32745 ft | 462 kts | 149° |
| 2026-04-27 17:15 | 47.34885 | 12.38655 | 32469 ft | 454 kts | 148° |
| 2026-04-27 17:15 | 47.32277 | 12.41273 | 31986 ft | 450 kts | 147° |
| 2026-04-27 17:15 | 47.29712 | 12.43870 | 31612 ft | 445 kts | 147° |
| 2026-04-27 17:16 | 47.27165 | 12.46432 | 31186 ft | 442 kts | 147° |
| 2026-04-27 17:16 | 47.24628 | 12.48961 | 30784 ft | 439 kts | 148° |
| 2026-04-27 17:16 | 47.22128 | 12.51431 | 30394 ft | 436 kts | 148° |
| 2026-04-27 17:16 | 47.19606 | 12.53904 | 29940 ft | 434 kts | 148° |
| 2026-04-27 17:17 | 47.17097 | 12.56356 | 29460 ft | 432 kts | 148° |
| 2026-04-27 17:17 | 47.14611 | 12.58779 | 29052 ft | 427 kts | 148° |
| 2026-04-27 17:17 | 47.12143 | 12.61180 | 28597 ft | 424 kts | 148° |
| 2026-04-27 17:18 | 47.07279 | 12.65903 | 27772 ft | 416 kts | 148° |
| 2026-04-27 17:18 | 47.04869 | 12.68240 | 27357 ft | 413 kts | 148° |
| 2026-04-27 17:18 | 47.02484 | 12.70551 | 26960 ft | 408 kts | 148° |
| 2026-04-27 17:18 | 47.00125 | 12.72835 | 26555 ft | 406 kts | 148° |
| 2026-04-27 17:19 | 46.97772 | 12.75110 | 26136 ft | 403 kts | 148° |
| 2026-04-27 17:19 | 46.95436 | 12.77366 | 25733 ft | 400 kts | 148° |
| 2026-04-27 17:19 | 46.93148 | 12.79574 | 25354 ft | 398 kts | 148° |
| 2026-04-27 17:19 | 46.90845 | 12.81794 | 24955 ft | 397 kts | 148° |
| 2026-04-27 17:20 | 46.88538 | 12.84015 | 24564 ft | 397 kts | 148° |
| 2026-04-27 17:20 | 46.86225 | 12.86240 | 24139 ft | 397 kts | 148° |
| 2026-04-27 17:20 | 46.83922 | 12.88453 | 23747 ft | 396 kts | 148° |
| 2026-04-27 17:20 | 46.81622 | 12.90660 | 23286 ft | 394 kts | 148° |
| 2026-04-27 17:21 | 46.79335 | 12.92853 | 22843 ft | 392 kts | 148° |
| 2026-04-27 17:21 | 46.77067 | 12.95026 | 22431 ft | 389 kts | 148° |
| 2026-04-27 17:21 | 46.74811 | 12.97186 | 22026 ft | 385 kts | 148° |
| 2026-04-27 17:21 | 46.72581 | 12.99318 | 21637 ft | 382 kts | 148° |
| 2026-04-27 17:22 | 46.70364 | 13.01436 | 21252 ft | 379 kts | 148° |
| 2026-04-27 17:22 | 46.68160 | 13.03538 | 20835 ft | 377 kts | 148° |
| 2026-04-27 17:22 | 46.65988 | 13.05608 | 20439 ft | 375 kts | 148° |
| 2026-04-27 17:22 | 46.63809 | 13.07683 | 20055 ft | 373 kts | 148° |
| 2026-04-27 17:23 | 46.61639 | 13.09747 | 19657 ft | 371 kts | 148° |
| 2026-04-27 17:23 | 46.59478 | 13.11801 | 19284 ft | 370 kts | 148° |
| 2026-04-27 17:23 | 46.57332 | 13.13839 | 18891 ft | 368 kts | 148° |
| 2026-04-27 17:23 | 46.55191 | 13.15869 | 18515 ft | 366 kts | 148° |
| 2026-04-27 17:24 | 46.53059 | 13.17889 | 18104 ft | 365 kts | 148° |
| 2026-04-27 17:24 | 46.50940 | 13.19896 | 17676 ft | 363 kts | 148° |
| 2026-04-27 17:24 | 46.48859 | 13.21864 | 17283 ft | 360 kts | 148° |
| 2026-04-27 17:24 | 46.46761 | 13.23847 | 16906 ft | 358 kts | 148° |
| 2026-04-27 17:25 | 46.44676 | 13.25815 | 16532 ft | 356 kts | 148° |
| 2026-04-27 17:25 | 46.42603 | 13.27771 | 16143 ft | 354 kts | 148° |
| 2026-04-27 17:25 | 46.40543 | 13.29711 | 15762 ft | 352 kts | 148° |
| 2026-04-27 17:25 | 46.38493 | 13.31642 | 15398 ft | 350 kts | 148° |
| 2026-04-27 17:26 | 46.36457 | 13.33558 | 15015 ft | 348 kts | 148° |
| 2026-04-27 17:26 | 46.34437 | 13.35457 | 14661 ft | 345 kts | 148° |
| 2026-04-27 17:26 | 46.32450 | 13.37324 | 14299 ft | 344 kts | 148° |
| 2026-04-27 17:26 | 46.30444 | 13.39206 | 13928 ft | 343 kts | 148° |
| 2026-04-27 17:27 | 46.28439 | 13.41086 | 13502 ft | 342 kts | 148° |
| 2026-04-27 17:27 | 46.26445 | 13.42953 | 13107 ft | 340 kts | 148° |
| 2026-04-27 17:27 | 46.24467 | 13.44804 | 12723 ft | 338 kts | 148° |
| 2026-04-27 17:27 | 46.22393 | 13.46387 | 12323 ft | 335 kts | 164° |
| 2026-04-27 17:28 | 46.20140 | 13.46822 | 11954 ft | 330 kts | 185° |
| 2026-04-27 17:28 | 46.17886 | 13.46311 | 11582 ft | 326 kts | 193° |
| 2026-04-27 17:28 | 46.13479 | 13.44958 | 10838 ft | 321 kts | 193° |
| 2026-04-27 17:29 | 46.11290 | 13.44294 | 10473 ft | 319 kts | 193° |
| 2026-04-27 17:29 | 46.09147 | 13.43658 | 10337 ft | 309 kts | 192° |
| 2026-04-27 17:29 | 46.07063 | 13.43053 | 10190 ft | 301 kts | 192° |
| 2026-04-27 17:29 | 46.05038 | 13.42468 | 10043 ft | 293 kts | 192° |
| 2026-04-27 17:30 | 46.03096 | 13.41910 | 9889 ft | 286 kts | 192° |
| 2026-04-27 17:30 | 45.99161 | 13.40774 | 9156 ft | 287 kts | 192° |
| 2026-04-27 17:30 | 45.97205 | 13.40202 | 8867 ft | 285 kts | 192° |
| 2026-04-27 17:31 | 45.95291 | 13.39642 | 8747 ft | 277 kts | 192° |
| 2026-04-27 17:31 | 45.93430 | 13.39099 | 8616 ft | 269 kts | 192° |
| 2026-04-27 17:31 | 45.91605 | 13.38567 | 8377 ft | 267 kts | 192° |
| 2026-04-27 17:31 | 45.89787 | 13.38036 | 8105 ft | 266 kts | 192° |
| 2026-04-27 17:32 | 45.87974 | 13.37508 | 7828 ft | 265 kts | 191° |
| 2026-04-27 17:32 | 45.84370 | 13.36459 | 7270 ft | 263 kts | 191° |
| 2026-04-27 17:32 | 45.82596 | 13.35975 | 6980 ft | 263 kts | 186° |
| 2026-04-27 17:33 | 45.80768 | 13.35870 | 6703 ft | 262 kts | 179° |
| 2026-04-27 17:33 | 45.78942 | 13.35895 | 6388 ft | 262 kts | 179° |
| 2026-04-27 17:33 | 45.77111 | 13.35740 | 5990 ft | 265 kts | 196° |
| 2026-04-27 17:33 | 45.75596 | 13.34385 | 5937 ft | 253 kts | 227° |
| 2026-04-27 17:34 | 45.74750 | 13.32299 | 5853 ft | 240 kts | 250° |
| 2026-04-27 17:34 | 45.74480 | 13.29981 | 5592 ft | 235 kts | 267° |
| 2026-04-27 17:34 | 45.74477 | 13.27654 | 5285 ft | 230 kts | 270° |
| 2026-04-27 17:34 | 45.74500 | 13.25395 | 4976 ft | 224 kts | 269° |
| 2026-04-27 17:35 | 45.74625 | 13.23191 | 4494 ft | 226 kts | 287° |
| 2026-04-27 17:35 | 45.75495 | 13.21398 | 4186 ft | 218 kts | 323° |
| 2026-04-27 17:35 | 45.76379 | 13.20763 | 4016 ft | 210 kts | 344° |
| 2026-04-27 17:35 | 45.77787 | 13.20511 | 3788 ft | 200 kts | 1° |
| 2026-04-27 17:36 | 45.79149 | 13.20537 | 3555 ft | 192 kts | 1° |
| 2026-04-27 17:36 | 45.80473 | 13.20557 | 3360 ft | 188 kts | 1° |
| 2026-04-27 17:36 | 45.81732 | 13.20755 | 3134 ft | 182 kts | 24° |
| 2026-04-27 17:36 | 45.82587 | 13.21971 | 2953 ft | 176 kts | 74° |
| 2026-04-27 17:37 | 45.82748 | 13.23707 | 2820 ft | 178 kts | 85° |
| 2026-04-27 17:37 | 45.82846 | 13.25480 | 2628 ft | 177 kts | 88° |
| 2026-04-27 17:37 | 45.82878 | 13.27227 | 2452 ft | 175 kts | 90° |
| 2026-04-27 17:37 | 45.82881 | 13.28954 | 2243 ft | 172 kts | 91° |
| 2026-04-27 17:38 | 45.82875 | 13.30687 | 2006 ft | 175 kts | 91° |
| 2026-04-27 17:38 | 45.82865 | 13.32416 | 1766 ft | 172 kts | 91° |
| 2026-04-27 17:38 | 45.82855 | 13.34103 | 1575 ft | 165 kts | 91° |
| 2026-04-27 17:38 | 45.82845 | 13.35734 | 1319 ft | 161 kts | 92° |
| 2026-04-27 17:39 | 45.82837 | 13.37295 | 1109 ft | 155 kts | 92° |
| 2026-04-27 17:39 | 45.82828 | 13.38792 | 921 ft | 150 kts | 92° |
| 2026-04-27 17:39 | 45.82822 | 13.40277 | 721 ft | 148 kts | 92° |
| 2026-04-27 17:39 | 45.82810 | 13.41754 | 530 ft | 148 kts | 92° |
| 2026-04-27 17:40 | 45.82805 | 13.43218 | 345 ft | 146 kts | 92° |
| 2026-04-27 17:40 | 45.82800 | 13.44666 | 124 ft | 144 kts | 92° |
| 2026-04-27 17:40 | 45.82792 | 13.46045 | 45 ft | 123 kts | 89° |
| 2026-04-27 17:40 | 45.82785 | 13.46963 | 45 ft | 70 kts | 90° |
| 2026-04-27 17:41 | 45.82782 | 13.47504 | 47 ft | 29 kts | 90° |
| 2026-04-27 17:41 | 45.82732 | 13.47686 | 47 ft | 18 kts | 140° |
| 2026-04-27 17:41 | 45.82635 | 13.47802 | 46 ft | 18 kts | 140° |
| 2026-04-27 17:41 | 45.82541 | 13.47914 | 46 ft | 17 kts | 140° |
| 2026-04-27 17:42 | 45.82451 | 13.48023 | 46 ft | 17 kts | 140° |
| 2026-04-27 17:42 | 45.82364 | 13.48128 | 46 ft | 16 kts | 140° |
| 2026-04-27 17:42 | 45.82286 | 13.48222 | 46 ft | 13 kts | 142° |
| 2026-04-27 17:42 | 45.82261 | 13.48337 | 46 ft | 13 kts | 80° |
| 2026-04-27 17:43 | 45.82273 | 13.48445 | 46 ft | 6 kts | 87° |
| 2026-04-27 17:43 | 45.82251 | 13.48477 | 45 ft | 4 kts | 165° |
| 2026-04-27 17:43 | 45.82224 | 13.48484 | 46 ft | 2 kts | 171° |
| 2026-04-27 17:43 | 45.82218 | 13.48485 | 46 ft | 0 kts | 171° |